sensor_id;sensor_type;location;lat;lon;timestamp;temperature;humidity
74081;SHT31;62438;52.228;6.864;2022-12-15T00:00:37;-5.63;95.68
74081;SHT31;62438;52.228;6.864;2022-12-15T00:02:56;-5.65;95.54
74081;SHT31;62438;52.228;6.864;2022-12-15T00:05:15;-5.68;95.64
74081;SHT31;62438;52.228;6.864;2022-12-15T00:07:34;-5.68;95.73
74081;SHT31;62438;52.228;6.864;2022-12-15T00:09:52;-5.67;95.79
74081;SHT31;62438;52.228;6.864;2022-12-15T00:12:11;-5.61;95.46
74081;SHT31;62438;52.228;6.864;2022-12-15T00:14:30;-5.64;95.40
74081;SHT31;62438;52.228;6.864;2022-12-15T00:16:49;-5.64;95.63
74081;SHT31;62438;52.228;6.864;2022-12-15T00:19:08;-5.65;95.51
74081;SHT31;62438;52.228;6.864;2022-12-15T00:21:27;-5.65;95.45
74081;SHT31;62438;52.228;6.864;2022-12-15T00:23:46;-5.67;95.31
74081;SHT31;62438;52.228;6.864;2022-12-15T00:26:05;-5.63;95.71
74081;SHT31;62438;52.228;6.864;2022-12-15T00:28:24;-5.53;95.30
74081;SHT31;62438;52.228;6.864;2022-12-15T00:30:43;-5.54;95.01
74081;SHT31;62438;52.228;6.864;2022-12-15T00:33:08;-5.54;94.97
74081;SHT31;62438;52.228;6.864;2022-12-15T00:35:27;-5.55;95.24
74081;SHT31;62438;52.228;6.864;2022-12-15T00:37:46;-5.47;95.01
74081;SHT31;62438;52.228;6.864;2022-12-15T00:40:05;-5.47;94.96
74081;SHT31;62438;52.228;6.864;2022-12-15T00:42:07;-5.48;94.94
74081;SHT31;62438;52.228;6.864;2022-12-15T00:44:11;-5.53;94.63
74081;SHT31;62438;52.228;6.864;2022-12-15T00:46:12;-5.55;94.86
74081;SHT31;62438;52.228;6.864;2022-12-15T00:48:31;-5.57;95.28
74081;SHT31;62438;52.228;6.864;2022-12-15T00:50:32;-5.50;94.99
74081;SHT31;62438;52.228;6.864;2022-12-15T00:52:51;-5.54;94.92
74081;SHT31;62438;52.228;6.864;2022-12-15T00:55:10;-5.58;94.72
74081;SHT31;62438;52.228;6.864;2022-12-15T00:57:29;-5.55;94.75
74081;SHT31;62438;52.228;6.864;2022-12-15T00:59:48;-5.54;94.92
74081;SHT31;62438;52.228;6.864;2022-12-15T01:02:07;-5.63;95.32
74081;SHT31;62438;52.228;6.864;2022-12-15T01:04:26;-5.71;95.35
74081;SHT31;62438;52.228;6.864;2022-12-15T01:06:45;-5.75;95.71
74081;SHT31;62438;52.228;6.864;2022-12-15T01:09:06;-5.68;95.49
74081;SHT31;62438;52.228;6.864;2022-12-15T01:11:25;-5.78;95.26
74081;SHT31;62438;52.228;6.864;2022-12-15T01:13:44;-5.71;95.28
74081;SHT31;62438;52.228;6.864;2022-12-15T01:16:13;-5.72;95.22
74081;SHT31;62438;52.228;6.864;2022-12-15T01:18:34;-5.77;95.16
74081;SHT31;62438;52.228;6.864;2022-12-15T01:20:57;-5.72;95.24
74081;SHT31;62438;52.228;6.864;2022-12-15T01:22:57;-5.88;95.57
74081;SHT31;62438;52.228;6.864;2022-12-15T01:24:58;-5.89;95.22
74081;SHT31;62438;52.228;6.864;2022-12-15T01:26:58;-5.92;95.40
74081;SHT31;62438;52.228;6.864;2022-12-15T01:28:59;-5.88;95.72
74081;SHT31;62438;52.228;6.864;2022-12-15T01:30:59;-5.85;95.07
74081;SHT31;62438;52.228;6.864;2022-12-15T01:32:59;-5.79;95.16
74081;SHT31;62438;52.228;6.864;2022-12-15T01:35:00;-5.84;95.47
74081;SHT31;62438;52.228;6.864;2022-12-15T01:37:00;-5.88;95.55
74081;SHT31;62438;52.228;6.864;2022-12-15T01:39:01;-5.93;95.48
74081;SHT31;62438;52.228;6.864;2022-12-15T01:41:04;-5.84;95.58
74081;SHT31;62438;52.228;6.864;2022-12-15T01:43:14;-5.79;95.26
74081;SHT31;62438;52.228;6.864;2022-12-15T01:47:24;-5.78;94.92
74081;SHT31;62438;52.228;6.864;2022-12-15T01:49:28;-5.85;95.21
74081;SHT31;62438;52.228;6.864;2022-12-15T01:51:36;-5.75;95.22
74081;SHT31;62438;52.228;6.864;2022-12-15T01:53:42;-5.75;94.89
74081;SHT31;62438;52.228;6.864;2022-12-15T01:55:45;-5.70;94.62
74081;SHT31;62438;52.228;6.864;2022-12-15T01:57:47;-5.75;94.59
74081;SHT31;62438;52.228;6.864;2022-12-15T01:59:52;-5.81;94.92
74081;SHT31;62438;52.228;6.864;2022-12-15T02:01:53;-5.88;95.24
74081;SHT31;62438;52.228;6.864;2022-12-15T02:03:54;-5.88;95.15
74081;SHT31;62438;52.228;6.864;2022-12-15T02:05:55;-5.92;95.52
74081;SHT31;62438;52.228;6.864;2022-12-15T02:07:57;-5.95;95.62
74081;SHT31;62438;52.228;6.864;2022-12-15T02:10:01;-5.91;95.75
74081;SHT31;62438;52.228;6.864;2022-12-15T02:32:25;-5.78;95.30
74081;SHT31;62438;52.228;6.864;2022-12-15T02:36:41;-5.77;95.55
74081;SHT31;62438;52.228;6.864;2022-12-15T02:38:43;-5.92;95.38
74081;SHT31;62438;52.228;6.864;2022-12-15T02:40:44;-6.05;95.80
74081;SHT31;62438;52.228;6.864;2022-12-15T02:42:48;-5.91;95.91
74081;SHT31;62438;52.228;6.864;2022-12-15T02:45:06;-5.89;95.32
74081;SHT31;62438;52.228;6.864;2022-12-15T02:47:14;-5.82;95.27
74081;SHT31;62438;52.228;6.864;2022-12-15T02:52:19;-5.71;95.40
74081;SHT31;62438;52.228;6.864;2022-12-15T02:57:12;-5.74;95.09
74081;SHT31;62438;52.228;6.864;2022-12-15T02:59:27;-5.84;95.09
74081;SHT31;62438;52.228;6.864;2022-12-15T03:02:01;-5.84;95.30
74081;SHT31;62438;52.228;6.864;2022-12-15T03:04:05;-5.96;95.46
74081;SHT31;62438;52.228;6.864;2022-12-15T03:06:05;-5.95;95.90
74081;SHT31;62438;52.228;6.864;2022-12-15T03:08:05;-5.93;95.71
74081;SHT31;62438;52.228;6.864;2022-12-15T03:10:09;-5.86;95.37
74081;SHT31;62438;52.228;6.864;2022-12-15T03:12:10;-5.81;95.41
74081;SHT31;62438;52.228;6.864;2022-12-15T03:14:11;-5.79;95.14
74081;SHT31;62438;52.228;6.864;2022-12-15T03:16:14;-5.77;94.99
74081;SHT31;62438;52.228;6.864;2022-12-15T03:18:14;-5.74;95.28
74081;SHT31;62438;52.228;6.864;2022-12-15T03:20:15;-5.74;94.84
74081;SHT31;62438;52.228;6.864;2022-12-15T03:22:15;-5.72;94.85
74081;SHT31;62438;52.228;6.864;2022-12-15T03:24:15;-5.71;94.63
74081;SHT31;62438;52.228;6.864;2022-12-15T03:26:16;-5.75;95.03
74081;SHT31;62438;52.228;6.864;2022-12-15T03:28:17;-5.77;95.14
74081;SHT31;62438;52.228;6.864;2022-12-15T03:30:17;-5.78;94.95
74081;SHT31;62438;52.228;6.864;2022-12-15T03:32:18;-5.71;95.05
74081;SHT31;62438;52.228;6.864;2022-12-15T03:34:18;-5.79;95.08
74081;SHT31;62438;52.228;6.864;2022-12-15T03:36:18;-5.70;95.40
74081;SHT31;62438;52.228;6.864;2022-12-15T03:38:19;-5.70;94.80
74081;SHT31;62438;52.228;6.864;2022-12-15T03:40:20;-5.71;94.93
74081;SHT31;62438;52.228;6.864;2022-12-15T03:42:20;-5.75;95.18
74081;SHT31;62438;52.228;6.864;2022-12-15T03:44:40;-5.84;95.31
74081;SHT31;62438;52.228;6.864;2022-12-15T03:46:41;-5.88;95.49
74081;SHT31;62438;52.228;6.864;2022-12-15T03:48:41;-5.86;95.46
74081;SHT31;62438;52.228;6.864;2022-12-15T03:50:42;-5.86;95.44
74081;SHT31;62438;52.228;6.864;2022-12-15T03:52:43;-5.89;95.23
74081;SHT31;62438;52.228;6.864;2022-12-15T03:54:44;-5.88;95.17
74081;SHT31;62438;52.228;6.864;2022-12-15T03:56:44;-5.85;95.30
74081;SHT31;62438;52.228;6.864;2022-12-15T03:58:45;-5.86;94.94
74081;SHT31;62438;52.228;6.864;2022-12-15T04:00:46;-5.78;94.83
74081;SHT31;62438;52.228;6.864;2022-12-15T04:02:47;-5.84;95.01
74081;SHT31;62438;52.228;6.864;2022-12-15T04:04:47;-5.84;95.17
74081;SHT31;62438;52.228;6.864;2022-12-15T04:06:48;-5.82;94.83
74081;SHT31;62438;52.228;6.864;2022-12-15T04:08:48;-5.75;95.07
74081;SHT31;62438;52.228;6.864;2022-12-15T04:10:49;-5.81;94.83
74081;SHT31;62438;52.228;6.864;2022-12-15T04:13:10;-5.79;95.06
74081;SHT31;62438;52.228;6.864;2022-12-15T04:15:11;-5.75;95.09
74081;SHT31;62438;52.228;6.864;2022-12-15T04:17:11;-5.72;94.77
74081;SHT31;62438;52.228;6.864;2022-12-15T04:19:12;-5.74;94.71
74081;SHT31;62438;52.228;6.864;2022-12-15T04:21:51;-5.77;94.72
74081;SHT31;62438;52.228;6.864;2022-12-15T04:23:51;-5.67;95.01
74081;SHT31;62438;52.228;6.864;2022-12-15T04:26:10;-5.58;94.67
74081;SHT31;62438;52.228;6.864;2022-12-15T04:28:29;-5.58;94.38
74081;SHT31;62438;52.228;6.864;2022-12-15T04:31:17;-5.64;94.44
74081;SHT31;62438;52.228;6.864;2022-12-15T04:33:29;-5.70;94.53
74081;SHT31;62438;52.228;6.864;2022-12-15T04:35:49;-5.68;94.43
74081;SHT31;62438;52.228;6.864;2022-12-15T04:38:09;-5.63;94.56
74081;SHT31;62438;52.228;6.864;2022-12-15T04:40:28;-5.64;94.27
74081;SHT31;62438;52.228;6.864;2022-12-15T04:42:47;-5.63;94.44
74081;SHT31;62438;52.228;6.864;2022-12-15T04:45:07;-5.67;94.25
74081;SHT31;62438;52.228;6.864;2022-12-15T04:47:27;-5.67;94.50
74081;SHT31;62438;52.228;6.864;2022-12-15T04:49:46;-5.64;94.32
74081;SHT31;62438;52.228;6.864;2022-12-15T04:52:05;-5.58;94.07
74081;SHT31;62438;52.228;6.864;2022-12-15T04:54:24;-5.63;94.23
74081;SHT31;62438;52.228;6.864;2022-12-15T04:56:43;-5.65;94.15
74081;SHT31;62438;52.228;6.864;2022-12-15T04:59:03;-5.75;94.23
74081;SHT31;62438;52.228;6.864;2022-12-15T05:01:22;-5.68;94.53
74081;SHT31;62438;52.228;6.864;2022-12-15T05:03:42;-5.71;94.43
74081;SHT31;62438;52.228;6.864;2022-12-15T05:06:01;-5.77;94.54
74081;SHT31;62438;52.228;6.864;2022-12-15T05:08:20;-5.75;94.62
74081;SHT31;62438;52.228;6.864;2022-12-15T05:10:39;-5.77;94.65
74081;SHT31;62438;52.228;6.864;2022-12-15T05:13:07;-5.72;94.53
74081;SHT31;62438;52.228;6.864;2022-12-15T05:15:27;-5.78;94.80
74081;SHT31;62438;52.228;6.864;2022-12-15T05:17:46;-5.72;94.66
74081;SHT31;62438;52.228;6.864;2022-12-15T05:20:05;-5.77;94.72
74081;SHT31;62438;52.228;6.864;2022-12-15T05:22:24;-5.77;94.83
74081;SHT31;62438;52.228;6.864;2022-12-15T05:24:43;-5.72;94.77
74081;SHT31;62438;52.228;6.864;2022-12-15T05:27:02;-5.72;94.52
74081;SHT31;62438;52.228;6.864;2022-12-15T05:29:21;-5.77;94.63
74081;SHT31;62438;52.228;6.864;2022-12-15T05:31:40;-5.82;94.90
74081;SHT31;62438;52.228;6.864;2022-12-15T05:34:06;-5.79;95.00
74081;SHT31;62438;52.228;6.864;2022-12-15T05:36:07;-5.78;94.89
74081;SHT31;62438;52.228;6.864;2022-12-15T05:38:07;-5.81;94.97
74081;SHT31;62438;52.228;6.864;2022-12-15T05:40:08;-5.78;94.67
74081;SHT31;62438;52.228;6.864;2022-12-15T05:42:09;-5.79;94.86
74081;SHT31;62438;52.228;6.864;2022-12-15T05:44:09;-5.77;94.54
74081;SHT31;62438;52.228;6.864;2022-12-15T05:46:10;-5.74;94.49
74081;SHT31;62438;52.228;6.864;2022-12-15T05:48:11;-5.75;94.71
74081;SHT31;62438;52.228;6.864;2022-12-15T05:50:11;-5.81;94.79
74081;SHT31;62438;52.228;6.864;2022-12-15T05:52:12;-5.81;94.68
74081;SHT31;62438;52.228;6.864;2022-12-15T05:54:15;-5.75;94.50
74081;SHT31;62438;52.228;6.864;2022-12-15T05:56:16;-5.78;94.35
74081;SHT31;62438;52.228;6.864;2022-12-15T05:58:16;-5.79;94.39
74081;SHT31;62438;52.228;6.864;2022-12-15T06:00:17;-5.78;94.29
74081;SHT31;62438;52.228;6.864;2022-12-15T06:02:17;-5.72;94.19
74081;SHT31;62438;52.228;6.864;2022-12-15T06:04:18;-5.75;94.18
74081;SHT31;62438;52.228;6.864;2022-12-15T06:06:19;-5.75;94.12
74081;SHT31;62438;52.228;6.864;2022-12-15T06:08:19;-5.79;94.42
74081;SHT31;62438;52.228;6.864;2022-12-15T06:10:20;-5.75;94.60
74081;SHT31;62438;52.228;6.864;2022-12-15T06:12:20;-5.71;94.18
74081;SHT31;62438;52.228;6.864;2022-12-15T06:14:20;-5.72;94.37
74081;SHT31;62438;52.228;6.864;2022-12-15T06:16:23;-5.71;94.33
74081;SHT31;62438;52.228;6.864;2022-12-15T06:18:26;-5.70;94.16
74081;SHT31;62438;52.228;6.864;2022-12-15T06:20:27;-5.68;94.28
74081;SHT31;62438;52.228;6.864;2022-12-15T06:22:28;-5.68;94.41
74081;SHT31;62438;52.228;6.864;2022-12-15T06:24:28;-5.68;94.36
74081;SHT31;62438;52.228;6.864;2022-12-15T06:26:34;-5.64;94.38
74081;SHT31;62438;52.228;6.864;2022-12-15T06:28:35;-5.67;94.29
74081;SHT31;62438;52.228;6.864;2022-12-15T06:30:35;-5.67;94.16
74081;SHT31;62438;52.228;6.864;2022-12-15T06:32:36;-5.64;94.19
74081;SHT31;62438;52.228;6.864;2022-12-15T06:34:37;-5.64;94.39
74081;SHT31;62438;52.228;6.864;2022-12-15T06:36:38;-5.60;94.39
74081;SHT31;62438;52.228;6.864;2022-12-15T06:38:38;-5.63;94.26
74081;SHT31;62438;52.228;6.864;2022-12-15T06:40:39;-5.63;94.28
74081;SHT31;62438;52.228;6.864;2022-12-15T06:42:40;-5.63;94.24
74081;SHT31;62438;52.228;6.864;2022-12-15T06:44:40;-5.64;94.22
74081;SHT31;62438;52.228;6.864;2022-12-15T06:46:41;-5.68;94.28
74081;SHT31;62438;52.228;6.864;2022-12-15T06:48:42;-5.67;94.51
74081;SHT31;62438;52.228;6.864;2022-12-15T06:50:45;-5.71;94.53
74081;SHT31;62438;52.228;6.864;2022-12-15T06:52:45;-5.65;94.75
74081;SHT31;62438;52.228;6.864;2022-12-15T06:54:45;-5.60;94.22
74081;SHT31;62438;52.228;6.864;2022-12-15T06:56:46;-5.61;94.18
74081;SHT31;62438;52.228;6.864;2022-12-15T06:58:47;-5.64;94.31
74081;SHT31;62438;52.228;6.864;2022-12-15T07:00:48;-5.65;94.29
74081;SHT31;62438;52.228;6.864;2022-12-15T07:02:48;-5.60;94.32
74081;SHT31;62438;52.228;6.864;2022-12-15T07:04:49;-5.64;94.33
74081;SHT31;62438;52.228;6.864;2022-12-15T07:06:49;-5.58;94.11
74081;SHT31;62438;52.228;6.864;2022-12-15T07:08:53;-5.58;94.18
74081;SHT31;62438;52.228;6.864;2022-12-15T07:10:55;-5.64;94.30
74081;SHT31;62438;52.228;6.864;2022-12-15T07:12:56;-5.67;94.60
74081;SHT31;62438;52.228;6.864;2022-12-15T07:14:56;-5.68;94.39
74081;SHT31;62438;52.228;6.864;2022-12-15T07:16:57;-5.67;94.28
74081;SHT31;62438;52.228;6.864;2022-12-15T07:18:57;-5.68;94.53
74081;SHT31;62438;52.228;6.864;2022-12-15T07:21:03;-5.67;94.33
74081;SHT31;62438;52.228;6.864;2022-12-15T07:23:05;-5.64;94.18
74081;SHT31;62438;52.228;6.864;2022-12-15T07:25:08;-5.70;94.71
74081;SHT31;62438;52.228;6.864;2022-12-15T07:27:09;-5.70;94.58
74081;SHT31;62438;52.228;6.864;2022-12-15T07:29:09;-5.68;94.76
74081;SHT31;62438;52.228;6.864;2022-12-15T07:31:10;-5.77;94.66
74081;SHT31;62438;52.228;6.864;2022-12-15T07:33:11;-5.79;94.90
74081;SHT31;62438;52.228;6.864;2022-12-15T07:35:12;-5.82;94.91
74081;SHT31;62438;52.228;6.864;2022-12-15T07:37:12;-5.79;95.04
74081;SHT31;62438;52.228;6.864;2022-12-15T07:39:13;-5.77;94.69
74081;SHT31;62438;52.228;6.864;2022-12-15T07:41:15;-5.71;94.61
74081;SHT31;62438;52.228;6.864;2022-12-15T07:43:15;-5.75;94.69
74081;SHT31;62438;52.228;6.864;2022-12-15T07:45:16;-5.68;94.54
74081;SHT31;62438;52.228;6.864;2022-12-15T07:47:16;-5.65;94.43
74081;SHT31;62438;52.228;6.864;2022-12-15T07:49:17;-5.64;94.41
74081;SHT31;62438;52.228;6.864;2022-12-15T07:51:19;-5.60;94.43
74081;SHT31;62438;52.228;6.864;2022-12-15T07:53:19;-5.60;94.10
74081;SHT31;62438;52.228;6.864;2022-12-15T07:55:20;-5.68;94.31
74081;SHT31;62438;52.228;6.864;2022-12-15T07:57:21;-5.68;94.53
74081;SHT31;62438;52.228;6.864;2022-12-15T07:59:21;-5.67;94.38
74081;SHT31;62438;52.228;6.864;2022-12-15T08:01:23;-5.64;94.40
74081;SHT31;62438;52.228;6.864;2022-12-15T08:03:24;-5.64;94.45
74081;SHT31;62438;52.228;6.864;2022-12-15T08:05:24;-5.61;94.41
74081;SHT31;62438;52.228;6.864;2022-12-15T08:07:24;-5.57;94.30
74081;SHT31;62438;52.228;6.864;2022-12-15T08:09:25;-5.51;94.57
74081;SHT31;62438;52.228;6.864;2022-12-15T08:11:25;-5.50;94.33
74081;SHT31;62438;52.228;6.864;2022-12-15T08:13:32;-5.48;93.88
74081;SHT31;62438;52.228;6.864;2022-12-15T08:15:36;-5.47;93.94
74081;SHT31;62438;52.228;6.864;2022-12-15T08:17:37;-5.44;93.68
74081;SHT31;62438;52.228;6.864;2022-12-15T08:19:37;-5.47;93.65
74081;SHT31;62438;52.228;6.864;2022-12-15T08:21:39;-5.41;93.84
74081;SHT31;62438;52.228;6.864;2022-12-15T08:23:40;-5.38;93.60
74081;SHT31;62438;52.228;6.864;2022-12-15T08:25:40;-5.38;93.45
74081;SHT31;62438;52.228;6.864;2022-12-15T08:27:42;-5.35;93.62
74081;SHT31;62438;52.228;6.864;2022-12-15T08:29:42;-5.35;93.81
74081;SHT31;62438;52.228;6.864;2022-12-15T08:31:43;-5.34;93.94
74081;SHT31;62438;52.228;6.864;2022-12-15T08:33:44;-5.30;93.69
74081;SHT31;62438;52.228;6.864;2022-12-15T08:35:44;-5.22;93.72
74081;SHT31;62438;52.228;6.864;2022-12-15T08:37:45;-5.19;93.47
74081;SHT31;62438;52.228;6.864;2022-12-15T08:39:45;-5.19;93.39
74081;SHT31;62438;52.228;6.864;2022-12-15T08:41:47;-5.16;93.59
74081;SHT31;62438;52.228;6.864;2022-12-15T08:43:49;-5.10;93.65
74081;SHT31;62438;52.228;6.864;2022-12-15T08:45:49;-5.07;93.50
74081;SHT31;62438;52.228;6.864;2022-12-15T08:47:50;-5.00;93.09
74081;SHT31;62438;52.228;6.864;2022-12-15T08:49:51;-5.00;93.51
74081;SHT31;62438;52.228;6.864;2022-12-15T08:51:53;-4.99;93.35
74081;SHT31;62438;52.228;6.864;2022-12-15T08:53:54;-4.96;93.25
74081;SHT31;62438;52.228;6.864;2022-12-15T08:56:03;-4.91;93.29
74081;SHT31;62438;52.228;6.864;2022-12-15T08:58:05;-4.84;93.20
74081;SHT31;62438;52.228;6.864;2022-12-15T09:00:06;-4.82;93.36
74081;SHT31;62438;52.228;6.864;2022-12-15T09:02:09;-4.82;93.37
74081;SHT31;62438;52.228;6.864;2022-12-15T09:04:11;-4.74;93.64
74081;SHT31;62438;52.228;6.864;2022-12-15T09:06:17;-4.71;93.19
74081;SHT31;62438;52.228;6.864;2022-12-15T09:08:17;-4.65;93.05
74081;SHT31;62438;52.228;6.864;2022-12-15T09:10:18;-4.64;93.13
74081;SHT31;62438;52.228;6.864;2022-12-15T09:12:18;-4.62;93.50
74081;SHT31;62438;52.228;6.864;2022-12-15T09:14:19;-4.51;92.96
74081;SHT31;62438;52.228;6.864;2022-12-15T09:16:20;-4.48;93.04
74081;SHT31;62438;52.228;6.864;2022-12-15T09:18:21;-4.44;92.83
74081;SHT31;62438;52.228;6.864;2022-12-15T09:20:21;-4.40;93.23
74081;SHT31;62438;52.228;6.864;2022-12-15T09:22:22;-4.38;93.09
74081;SHT31;62438;52.228;6.864;2022-12-15T09:24:22;-4.37;93.15
74081;SHT31;62438;52.228;6.864;2022-12-15T09:26:25;-4.31;93.14
74081;SHT31;62438;52.228;6.864;2022-12-15T09:28:27;-4.26;92.89
74081;SHT31;62438;52.228;6.864;2022-12-15T09:30:27;-4.23;92.92
74081;SHT31;62438;52.228;6.864;2022-12-15T09:32:28;-4.13;92.87
74081;SHT31;62438;52.228;6.864;2022-12-15T09:34:29;-4.10;92.62
74081;SHT31;62438;52.228;6.864;2022-12-15T09:36:30;-4.05;92.38
74081;SHT31;62438;52.228;6.864;2022-12-15T09:38:38;-4.05;92.50
74081;SHT31;62438;52.228;6.864;2022-12-15T09:40:39;-3.97;92.65
74081;SHT31;62438;52.228;6.864;2022-12-15T09:42:40;-3.93;92.49
74081;SHT31;62438;52.228;6.864;2022-12-15T09:44:40;-3.83;92.01
74081;SHT31;62438;52.228;6.864;2022-12-15T09:48:50;-3.81;92.13
74081;SHT31;62438;52.228;6.864;2022-12-15T09:50:53;-3.75;92.46
74081;SHT31;62438;52.228;6.864;2022-12-15T09:52:54;-3.68;92.04
74081;SHT31;62438;52.228;6.864;2022-12-15T09:54:59;-3.64;92.10
74081;SHT31;62438;52.228;6.864;2022-12-15T09:57:06;-3.62;91.96
74081;SHT31;62438;52.228;6.864;2022-12-15T09:59:37;-3.52;91.92
74081;SHT31;62438;52.228;6.864;2022-12-15T10:01:51;-3.50;91.94
74081;SHT31;62438;52.228;6.864;2022-12-15T10:04:04;-3.47;92.07
74081;SHT31;62438;52.228;6.864;2022-12-15T10:06:10;-3.41;91.95
74081;SHT31;62438;52.228;6.864;2022-12-15T10:08:14;-3.33;91.72
74081;SHT31;62438;52.228;6.864;2022-12-15T10:12:39;-3.21;91.83
74081;SHT31;62438;52.228;6.864;2022-12-15T10:14:42;-3.20;91.51
74081;SHT31;62438;52.228;6.864;2022-12-15T10:16:59;-3.16;91.64
74081;SHT31;62438;52.228;6.864;2022-12-15T10:19:18;-3.08;91.96
74081;SHT31;62438;52.228;6.864;2022-12-15T10:21:25;-3.01;91.67
74081;SHT31;62438;52.228;6.864;2022-12-15T10:23:26;-3.00;91.66
74081;SHT31;62438;52.228;6.864;2022-12-15T10:25:29;-2.93;91.62
74081;SHT31;62438;52.228;6.864;2022-12-15T10:30:07;-2.73;91.29
74081;SHT31;62438;52.228;6.864;2022-12-15T10:32:18;-2.64;91.33
74081;SHT31;62438;52.228;6.864;2022-12-15T10:34:31;-2.59;91.23
74081;SHT31;62438;52.228;6.864;2022-12-15T10:36:32;-2.48;91.26
74081;SHT31;62438;52.228;6.864;2022-12-15T10:38:37;-2.42;90.85
74081;SHT31;62438;52.228;6.864;2022-12-15T10:42:49;-2.31;90.75
74081;SHT31;62438;52.228;6.864;2022-12-15T10:44:52;-2.28;91.04
74081;SHT31;62438;52.228;6.864;2022-12-15T10:46:56;-2.15;91.09
74081;SHT31;62438;52.228;6.864;2022-12-15T10:49:23;-2.11;90.57
74081;SHT31;62438;52.228;6.864;2022-12-15T10:51:28;-2.07;90.64
74081;SHT31;62438;52.228;6.864;2022-12-15T10:54:01;-2.01;90.63
74081;SHT31;62438;52.228;6.864;2022-12-15T10:56:06;-1.94;90.14
74081;SHT31;62438;52.228;6.864;2022-12-15T10:58:22;-1.90;90.56
74081;SHT31;62438;52.228;6.864;2022-12-15T11:00:28;-1.75;89.85
74081;SHT31;62438;52.228;6.864;2022-12-15T11:02:31;-1.73;89.80
74081;SHT31;62438;52.228;6.864;2022-12-15T11:04:32;-1.65;90.10
74081;SHT31;62438;52.228;6.864;2022-12-15T11:06:33;-1.54;89.14
74081;SHT31;62438;52.228;6.864;2022-12-15T11:08:36;-1.41;89.25
74081;SHT31;62438;52.228;6.864;2022-12-15T11:10:56;-1.28;88.86
74081;SHT31;62438;52.228;6.864;2022-12-15T11:17:22;-0.35;85.24
74081;SHT31;62438;52.228;6.864;2022-12-15T11:19:37;-0.28;85.14
74081;SHT31;62438;52.228;6.864;2022-12-15T11:21:47;-0.07;84.05
74081;SHT31;62438;52.228;6.864;2022-12-15T11:23:54;-0.10;83.76
74081;SHT31;62438;52.228;6.864;2022-12-15T11:26:00;-0.18;84.17
74081;SHT31;62438;52.228;6.864;2022-12-15T11:28:07;-0.35;85.19
74081;SHT31;62438;52.228;6.864;2022-12-15T11:30:18;-0.35;85.75
74081;SHT31;62438;52.228;6.864;2022-12-15T11:32:23;-0.21;85.17
74081;SHT31;62438;52.228;6.864;2022-12-15T11:34:50;0.20;83.92
74081;SHT31;62438;52.228;6.864;2022-12-15T11:37:12;0.29;83.36
74081;SHT31;62438;52.228;6.864;2022-12-15T11:39:27;0.20;83.28
74081;SHT31;62438;52.228;6.864;2022-12-15T11:44:22;0.56;82.88
74081;SHT31;62438;52.228;6.864;2022-12-15T11:46:26;0.67;81.94
74081;SHT31;62438;52.228;6.864;2022-12-15T11:58:01;0.68;83.16
74081;SHT31;62438;52.228;6.864;2022-12-15T12:00:09;0.57;83.66
74081;SHT31;62438;52.228;6.864;2022-12-15T12:02:18;0.50;84.04
74081;SHT31;62438;52.228;6.864;2022-12-15T12:04:34;0.43;84.93
74081;SHT31;62438;52.228;6.864;2022-12-15T12:11:14;0.26;85.69
74081;SHT31;62438;52.228;6.864;2022-12-15T12:17:54;0.00;87.36
74081;SHT31;62438;52.228;6.864;2022-12-15T12:19:59;-0.08;87.47
74081;SHT31;62438;52.228;6.864;2022-12-15T12:22:06;-0.10;87.97
74081;SHT31;62438;52.228;6.864;2022-12-15T12:26:34;-0.11;88.33
74081;SHT31;62438;52.228;6.864;2022-12-15T12:28:42;-0.05;88.35
74081;SHT31;62438;52.228;6.864;2022-12-15T12:30:46;-0.07;88.58
74081;SHT31;62438;52.228;6.864;2022-12-15T12:33:03;-0.11;88.70
74081;SHT31;62438;52.228;6.864;2022-12-15T12:39:19;-0.04;89.18
74081;SHT31;62438;52.228;6.864;2022-12-15T12:43:54;-0.02;89.25
74081;SHT31;62438;52.228;6.864;2022-12-15T12:46:12;-0.01;89.08
74081;SHT31;62438;52.228;6.864;2022-12-15T12:48:28;-0.04;89.33
74081;SHT31;62438;52.228;6.864;2022-12-15T12:50:32;0.02;89.51
74081;SHT31;62438;52.228;6.864;2022-12-15T12:52:34;0.03;89.06
74081;SHT31;62438;52.228;6.864;2022-12-15T12:56:41;-0.04;89.53
74081;SHT31;62438;52.228;6.864;2022-12-15T12:58:42;-0.02;89.35
74081;SHT31;62438;52.228;6.864;2022-12-15T13:01:04;-0.05;89.58
74081;SHT31;62438;52.228;6.864;2022-12-15T13:05:34;0.10;89.35
74081;SHT31;62438;52.228;6.864;2022-12-15T13:07:38;0.13;89.26
74081;SHT31;62438;52.228;6.864;2022-12-15T13:09:43;0.13;89.27
74081;SHT31;62438;52.228;6.864;2022-12-15T13:13:47;0.14;89.15
74081;SHT31;62438;52.228;6.864;2022-12-15T13:15:48;0.14;89.32
74081;SHT31;62438;52.228;6.864;2022-12-15T13:17:50;0.20;89.15
74081;SHT31;62438;52.228;6.864;2022-12-15T13:21:59;0.14;89.53
74081;SHT31;62438;52.228;6.864;2022-12-15T13:24:01;0.14;89.66
74081;SHT31;62438;52.228;6.864;2022-12-15T13:30:35;0.43;88.36
74081;SHT31;62438;52.228;6.864;2022-12-15T13:34:42;0.46;88.06
74081;SHT31;62438;52.228;6.864;2022-12-15T13:36:48;0.41;87.89
74081;SHT31;62438;52.228;6.864;2022-12-15T13:38:54;0.41;88.07
74081;SHT31;62438;52.228;6.864;2022-12-15T13:40:55;0.51;87.74
74081;SHT31;62438;52.228;6.864;2022-12-15T13:45:15;0.62;87.34
74081;SHT31;62438;52.228;6.864;2022-12-15T13:47:22;0.53;87.88
74081;SHT31;62438;52.228;6.864;2022-12-15T13:49:36;0.50;87.97
74081;SHT31;62438;52.228;6.864;2022-12-15T13:51:42;0.58;87.60
74081;SHT31;62438;52.228;6.864;2022-12-15T13:53:58;0.51;87.66
74081;SHT31;62438;52.228;6.864;2022-12-15T13:56:18;0.53;87.87
74081;SHT31;62438;52.228;6.864;2022-12-15T13:58:22;0.48;87.75
74081;SHT31;62438;52.228;6.864;2022-12-15T14:00:23;0.43;87.70
74081;SHT31;62438;52.228;6.864;2022-12-15T14:04:26;0.43;88.33
74081;SHT31;62438;52.228;6.864;2022-12-15T14:06:33;0.43;87.88
74081;SHT31;62438;52.228;6.864;2022-12-15T14:08:34;0.41;87.67
74081;SHT31;62438;52.228;6.864;2022-12-15T14:10:56;0.41;87.80
74081;SHT31;62438;52.228;6.864;2022-12-15T14:13:02;0.44;87.22
74081;SHT31;62438;52.228;6.864;2022-12-15T14:15:12;0.46;87.17
74081;SHT31;62438;52.228;6.864;2022-12-15T14:17:15;0.34;87.44
74081;SHT31;62438;52.228;6.864;2022-12-15T14:19:16;0.21;87.98
74081;SHT31;62438;52.228;6.864;2022-12-15T14:21:25;0.21;88.59
74081;SHT31;62438;52.228;6.864;2022-12-15T14:23:39;0.14;88.75
74081;SHT31;62438;52.228;6.864;2022-12-15T14:25:51;0.09;88.99
74081;SHT31;62438;52.228;6.864;2022-12-15T14:27:52;0.07;88.87
74081;SHT31;62438;52.228;6.864;2022-12-15T14:30:14;0.10;88.43
74081;SHT31;62438;52.228;6.864;2022-12-15T14:32:17;-0.02;88.92
74081;SHT31;62438;52.228;6.864;2022-12-15T14:36:31;-0.18;89.75
74081;SHT31;62438;52.228;6.864;2022-12-15T14:38:49;-0.21;89.03
74081;SHT31;62438;52.228;6.864;2022-12-15T14:40:53;-0.19;89.22
74081;SHT31;62438;52.228;6.864;2022-12-15T14:42:54;-0.17;88.97
74081;SHT31;62438;52.228;6.864;2022-12-15T14:44:55;-0.21;88.91
74081;SHT31;62438;52.228;6.864;2022-12-15T14:46:56;-0.19;88.87
74081;SHT31;62438;52.228;6.864;2022-12-15T14:49:06;-0.25;89.12
74081;SHT31;62438;52.228;6.864;2022-12-15T14:51:10;-0.28;89.72
74081;SHT31;62438;52.228;6.864;2022-12-15T14:53:16;-0.32;89.41
74081;SHT31;62438;52.228;6.864;2022-12-15T14:55:37;-0.35;89.24
74081;SHT31;62438;52.228;6.864;2022-12-15T14:57:42;-0.35;89.32